createdAt,value
2022-08-12T00:00:49.967Z,1.50
2022-08-12T00:03:35.382Z,1.63
2022-08-12T00:06:22.244Z,1.80
2022-08-12T00:09:07.448Z,1.50
2022-08-12T00:11:53.371Z,1.37
2022-08-12T00:14:39.789Z,1.60
2022-08-12T00:17:26.104Z,1.10
2022-08-12T00:20:11.897Z,1.53
2022-08-12T00:22:59.819Z,1.57
2022-08-12T00:26:21.758Z,1.50
2022-08-12T00:29:02.569Z,1.60
2022-08-12T00:31:47.735Z,1.90
2022-08-12T00:34:36.543Z,1.80
2022-08-12T00:37:25.047Z,1.70
2022-08-12T00:40:11.988Z,1.57
2022-08-12T00:42:42.595Z,1.20
2022-08-12T00:45:10.205Z,1.47
2022-08-12T00:47:39.399Z,1.50
2022-08-12T00:50:06.953Z,1.53
2022-08-12T00:52:35.228Z,1.43
2022-08-12T00:55:03.325Z,1.20
2022-08-12T00:57:36.761Z,1.73
2022-08-12T01:00:10.595Z,1.57
2022-08-12T01:02:40.643Z,1.50
2022-08-12T01:05:33.519Z,1.57
2022-08-12T01:08:18.743Z,1.30
2022-08-12T01:11:05.840Z,1.40
2022-08-12T01:13:35.279Z,1.50
2022-08-12T01:16:05.027Z,1.50
2022-08-12T01:18:35.178Z,1.53
2022-08-12T01:21:34.245Z,1.40
2022-08-12T01:24:31.405Z,1.70
2022-08-12T01:27:00.201Z,1.43
2022-08-12T01:29:32.642Z,1.43
2022-08-12T01:32:05.600Z,1.50
2022-08-12T01:34:37.361Z,1.40
2022-08-12T01:37:07.628Z,1.30
2022-08-12T01:40:34.914Z,1.77
2022-08-12T01:42:39.644Z,1.70
2022-08-12T01:45:07.297Z,1.63
2022-08-12T01:48:13.034Z,1.60
2022-08-12T01:50:46.247Z,1.80
2022-08-12T01:53:16.053Z,1.67
2022-08-12T01:55:45.445Z,1.70
2022-08-12T01:58:18.821Z,1.90
2022-08-12T02:00:59.282Z,2.00
2022-08-12T02:04:06.027Z,1.50
2022-08-12T02:07:12.563Z,1.60
2022-08-12T02:10:51.284Z,1.70
2022-08-12T02:13:08.740Z,1.70
2022-08-12T02:15:49.699Z,1.33
2022-08-12T02:18:51.527Z,1.70
2022-08-12T02:21:49.897Z,1.70
2022-08-12T02:24:20.540Z,1.67
2022-08-12T02:26:49.550Z,1.30
2022-08-12T02:29:18.848Z,1.60
2022-08-12T02:31:46.759Z,1.50
2022-08-12T02:34:16.512Z,1.60
2022-08-12T02:36:45.596Z,1.47
2022-08-12T02:39:16.409Z,1.70
2022-08-12T02:41:46.166Z,1.53
2022-08-12T02:44:15.300Z,1.70
2022-08-12T02:46:49.131Z,1.57
2022-08-12T02:49:39.969Z,1.60
2022-08-12T02:52:08.909Z,1.47
2022-08-12T02:54:37.412Z,1.70
2022-08-12T02:57:06.214Z,1.90
2022-08-12T02:59:35.620Z,1.60
2022-08-12T03:02:03.864Z,1.60
2022-08-12T03:04:46.486Z,1.53
2022-08-12T03:07:32.577Z,1.80
2022-08-12T03:10:16.140Z,1.70
2022-08-12T03:12:49.903Z,1.70
2022-08-12T03:15:22.000Z,1.90
2022-08-12T03:18:26.321Z,2.13
2022-08-12T03:20:56.825Z,1.70
2022-08-12T03:23:30.301Z,2.00
2022-08-12T03:26:02.906Z,1.80
2022-08-12T03:28:52.991Z,1.73
2022-08-12T03:31:22.833Z,1.87
2022-08-12T03:34:01.911Z,1.87
2022-08-12T03:36:36.022Z,2.00
2022-08-12T03:39:18.836Z,1.50
2022-08-12T03:42:24.194Z,1.80
2022-08-12T03:45:51.547Z,2.17
2022-08-12T03:48:38.491Z,1.80
2022-08-12T03:51:24.355Z,1.80
2022-08-12T03:54:11.447Z,1.97
2022-08-12T03:56:57.611Z,2.07
2022-08-12T03:59:42.595Z,1.70
2022-08-12T04:02:14.751Z,1.70
2022-08-12T04:04:45.363Z,1.70
2022-08-12T04:07:13.358Z,1.73
2022-08-12T04:09:42.251Z,1.80
2022-08-12T04:12:40.178Z,2.10
2022-08-12T04:15:12.893Z,1.60
2022-08-12T04:18:06.375Z,2.00
2022-08-12T04:20:27.992Z,1.80
2022-08-12T04:22:55.817Z,2.10
2022-08-12T04:25:25.321Z,2.33
2022-08-12T04:27:51.961Z,1.80
2022-08-12T04:30:31.839Z,2.13
2022-08-12T04:33:00.886Z,2.20
2022-08-12T04:35:28.338Z,1.90
2022-08-12T04:37:59.045Z,2.10
2022-08-12T04:40:30.688Z,2.10
2022-08-12T04:42:57.792Z,2.07
2022-08-12T04:45:25.040Z,1.90
2022-08-12T04:47:52.483Z,1.80
2022-08-12T04:50:34.399Z,2.00
2022-08-12T04:53:08.868Z,1.90
2022-08-12T04:55:38.634Z,2.67
2022-08-12T04:58:08.517Z,1.60
2022-08-12T05:00:36.069Z,2.30
2022-08-12T05:03:04.472Z,2.30
2022-08-12T05:05:36.040Z,2.07
2022-08-12T05:08:04.145Z,2.10
2022-08-12T05:10:33.710Z,1.87
2022-08-12T05:13:22.341Z,2.20
2022-08-12T05:16:03.767Z,1.97
2022-08-12T05:18:33.358Z,2.10
2022-08-12T05:21:02.099Z,2.13
2022-08-12T05:23:28.935Z,2.00
2022-08-12T05:25:57.105Z,2.03
2022-08-12T05:28:26.965Z,1.80
2022-08-12T05:30:54.267Z,1.87
2022-08-12T05:33:21.043Z,2.00
2022-08-12T05:35:50.243Z,2.00
2022-08-12T05:38:38.074Z,1.63
2022-08-12T05:41:07.033Z,1.77
2022-08-12T05:43:35.657Z,1.93
2022-08-12T05:46:02.494Z,1.80
2022-08-12T05:48:30.853Z,2.40
2022-08-12T05:50:57.792Z,2.20
2022-08-12T05:53:24.791Z,2.00
2022-08-12T05:55:53.701Z,1.70
2022-08-12T05:58:21.206Z,2.40
2022-08-12T06:00:48.229Z,1.90
2022-08-12T06:03:19.455Z,1.53
2022-08-12T06:05:54.772Z,2.10
2022-08-12T06:08:22.812Z,1.93
2022-08-12T06:10:52.103Z,1.87
2022-08-12T06:13:27.912Z,2.10
2022-08-12T06:15:56.121Z,1.80
2022-08-12T06:18:27.733Z,1.77
2022-08-12T06:21:01.592Z,1.50
2022-08-12T06:23:29.651Z,2.03
2022-08-12T06:25:56.878Z,1.80
2022-08-12T06:28:24.164Z,1.60
2022-08-12T06:31:15.307Z,1.90
2022-08-12T06:33:59.527Z,1.87
2022-08-12T06:36:32.626Z,1.90
2022-08-12T06:39:01.059Z,1.77
2022-08-12T06:42:02.426Z,1.70
2022-08-12T06:44:33.353Z,2.20
2022-08-12T06:47:00.316Z,1.90
2022-08-12T06:49:28.450Z,1.57
2022-08-12T06:51:56.609Z,1.87
2022-08-12T06:54:31.189Z,1.60
2022-08-12T06:57:04.196Z,1.50
2022-08-12T06:59:32.401Z,2.03
2022-08-12T07:01:59.353Z,1.97
2022-08-12T07:04:41.525Z,1.73
2022-08-12T07:07:09.714Z,2.07
2022-08-12T07:10:04.858Z,1.70
2022-08-12T07:12:36.570Z,2.00
2022-08-12T07:15:04.405Z,1.67
2022-08-12T07:17:37.258Z,2.00
2022-08-12T07:20:09.881Z,1.67
2022-08-12T07:22:37.640Z,1.53
2022-08-12T07:25:23.179Z,1.20
2022-08-12T07:27:54.500Z,1.50
2022-08-12T07:30:23.063Z,1.60
2022-08-12T07:32:51.532Z,2.10
2022-08-12T07:35:19.544Z,1.30
2022-08-12T07:37:47.357Z,1.43
2022-08-12T07:40:15.312Z,1.40
2022-08-12T07:42:43.787Z,1.37
2022-08-12T07:45:12.297Z,1.80
2022-08-12T07:47:43.299Z,1.40
2022-08-12T07:50:12.613Z,1.53
2022-08-12T07:52:42.561Z,1.57
2022-08-12T07:55:11.053Z,1.63
2022-08-12T07:57:57.931Z,1.60
2022-08-12T08:00:26.118Z,1.60
2022-08-12T08:02:54.257Z,1.43
2022-08-12T08:05:22.970Z,1.57
2022-08-12T08:07:49.657Z,1.10
2022-08-12T08:10:16.934Z,1.80
2022-08-12T08:12:58.825Z,2.00
2022-08-12T08:18:26.377Z,1.27
2022-08-12T08:20:56.024Z,1.60
2022-08-12T08:23:34.840Z,1.53
2022-08-12T08:26:01.971Z,1.40
2022-08-12T08:28:29.262Z,1.67
2022-08-12T08:30:55.808Z,1.33
2022-08-12T08:34:09.368Z,1.70
2022-08-12T08:36:16.237Z,1.50
2022-08-12T08:38:55.019Z,1.50
2022-08-12T08:42:15.895Z,1.37
2022-08-12T08:44:33.246Z,1.27
2022-08-12T08:47:03.400Z,1.10
2022-08-12T08:49:29.994Z,1.70
2022-08-12T08:51:56.725Z,1.60
2022-08-12T08:54:24.740Z,1.40
2022-08-12T08:56:52.336Z,1.23
2022-08-12T08:59:19.913Z,1.37
2022-08-12T09:01:47.628Z,1.30
2022-08-12T09:05:07.237Z,1.20
2022-08-12T09:07:17.948Z,1.40
2022-08-12T09:10:02.487Z,1.47
2022-08-12T09:12:51.578Z,1.30
2022-08-12T09:15:21.729Z,1.53
2022-08-12T09:17:59.343Z,1.30
2022-08-12T09:20:29.442Z,1.50
2022-08-12T09:22:57.982Z,1.20
2022-08-12T09:25:32.550Z,1.33
2022-08-12T09:28:04.925Z,1.17
2022-08-12T09:30:41.744Z,1.23
2022-08-12T09:33:15.124Z,1.50
2022-08-12T09:35:46.885Z,1.17
2022-08-12T09:38:35.234Z,1.40
2022-08-12T09:42:32.975Z,1.43
2022-08-12T09:44:37.835Z,1.30
2022-08-12T09:46:55.199Z,1.40
2022-08-12T09:49:29.249Z,1.13
2022-08-12T09:51:57.235Z,1.00
2022-08-12T09:54:34.086Z,1.43
2022-08-12T09:58:46.158Z,2.13
2022-08-12T10:00:14.634Z,1.20
2022-08-12T10:03:06.218Z,1.13
2022-08-12T10:06:26.729Z,1.07
2022-08-12T10:08:27.462Z,1.20
2022-08-12T10:11:20.538Z,1.30
2022-08-12T10:13:50.118Z,1.00
2022-08-12T10:16:23.118Z,1.30
2022-08-12T10:18:57.730Z,1.30
2022-08-12T10:21:35.671Z,1.30
2022-08-12T10:24:07.463Z,1.30
2022-08-12T10:26:53.649Z,1.60
2022-08-12T10:30:37.384Z,1.30
2022-08-12T10:32:44.546Z,1.67
2022-08-12T10:35:15.432Z,1.10
2022-08-12T10:38:36.336Z,1.17
2022-08-12T10:40:34.003Z,1.17
2022-08-12T10:43:21.504Z,1.17
2022-08-12T10:45:49.568Z,1.50
2022-08-12T10:48:27.023Z,1.20
2022-08-12T10:51:51.601Z,1.13
2022-08-12T10:53:54.237Z,1.10
2022-08-12T10:56:27.670Z,1.20
2022-08-12T10:59:02.149Z,1.07
2022-08-12T11:04:16.806Z,1.13
2022-08-12T11:04:37.157Z,1.13
2022-08-12T11:08:33.973Z,1.20
2022-08-12T11:09:55.973Z,1.37
2022-08-12T11:12:56.675Z,1.10
2022-08-12T11:15:21.099Z,1.20
2022-08-12T11:17:53.779Z,0.90
2022-08-12T11:20:24.403Z,1.00
2022-08-12T11:22:59.646Z,1.13
2022-08-12T11:25:42.241Z,0.90
2022-08-12T11:28:14.921Z,0.90
2022-08-12T11:30:43.186Z,1.03
2022-08-12T11:33:11.668Z,1.17
2022-08-12T11:35:42.876Z,1.10
2022-08-12T11:38:11.160Z,1.13
2022-08-12T11:40:38.030Z,1.10
2022-08-12T11:43:19.726Z,1.07
2022-08-12T11:45:47.713Z,1.10
2022-08-12T11:48:20.346Z,1.10
2022-08-12T11:50:54.368Z,1.07
2022-08-12T11:53:57.662Z,1.20
2022-08-12T11:56:07.811Z,1.10
2022-08-12T12:01:58.209Z,1.03
2022-08-12T12:02:00.875Z,1.10
2022-08-12T12:04:10.956Z,1.00
2022-08-12T12:06:37.443Z,1.07
2022-08-12T12:09:04.585Z,1.00
2022-08-12T12:11:48.555Z,1.30
2022-08-12T12:14:15.859Z,1.10
2022-08-12T12:16:50.052Z,1.50
2022-08-12T12:19:19.021Z,1.30
2022-08-12T12:21:48.695Z,1.30
2022-08-12T12:24:21.419Z,1.07
2022-08-12T12:27:00.411Z,1.53
2022-08-12T12:30:18.138Z,1.17
2022-08-12T12:32:18.575Z,1.00
2022-08-12T12:35:44.554Z,1.20
2022-08-12T12:38:03.558Z,1.20
2022-08-12T12:40:18.804Z,1.03
2022-08-12T12:42:54.606Z,1.30
2022-08-12T12:45:26.168Z,1.30
2022-08-12T12:47:56.995Z,1.00
2022-08-12T12:50:35.446Z,0.97
2022-08-12T12:54:05.847Z,1.27
2022-08-12T12:55:58.891Z,1.00
2022-08-12T12:58:25.515Z,1.10
2022-08-12T13:00:53.838Z,1.20
2022-08-12T13:03:21.917Z,1.20
2022-08-12T13:05:53.885Z,1.40
2022-08-12T13:08:28.215Z,1.10
2022-08-12T13:11:04.037Z,1.10
2022-08-12T13:14:10.253Z,1.30
2022-08-12T13:16:23.237Z,1.20
2022-08-12T13:18:51.418Z,1.27
2022-08-12T13:21:33.208Z,1.00
2022-08-12T13:24:09.841Z,1.20
2022-08-12T13:26:39.864Z,1.07
2022-08-12T13:29:06.290Z,1.33
2022-08-12T13:32:13.475Z,1.10
2022-08-12T13:34:33.517Z,1.10
2022-08-12T13:37:04.622Z,1.00
2022-08-12T13:39:36.322Z,1.20
2022-08-12T13:42:02.793Z,1.30
2022-08-12T13:44:30.139Z,0.90
2022-08-12T13:46:58.763Z,1.20
2022-08-12T13:49:54.941Z,1.20
2022-08-12T13:52:13.812Z,1.03
2022-08-12T13:54:40.383Z,1.10
2022-08-12T13:57:10.944Z,1.23
2022-08-12T13:59:48.203Z,1.20
2022-08-12T14:02:15.019Z,1.27
2022-08-12T14:04:45.384Z,1.33
2022-08-12T14:07:23.854Z,1.00
2022-08-12T14:10:11.686Z,1.23
2022-08-12T14:12:53.975Z,1.20
2022-08-12T14:15:21.428Z,0.93
2022-08-12T14:18:14.053Z,1.00
2022-08-12T14:20:47.606Z,0.90
2022-08-12T14:24:05.835Z,1.10
2022-08-12T14:26:05.244Z,0.90
2022-08-12T14:28:34.823Z,1.27
2022-08-12T14:31:18.504Z,1.20
2022-08-12T14:33:48.793Z,1.23
2022-08-12T14:36:20.562Z,1.10
2022-08-12T14:38:49.444Z,0.83
2022-08-12T14:41:21.350Z,1.00
2022-08-12T14:44:04.798Z,1.10
2022-08-12T14:46:37.645Z,0.80
2022-08-12T14:49:27.371Z,0.80
2022-08-12T14:52:44.123Z,1.03
2022-08-12T14:57:24.583Z,1.10
2022-08-12T15:00:22.865Z,1.07
2022-08-12T15:02:53.139Z,0.80
2022-08-12T15:06:05.435Z,1.10
2022-08-12T15:08:11.790Z,0.90
2022-08-12T15:10:43.574Z,0.90
2022-08-12T15:13:22.377Z,0.60
2022-08-12T15:15:50.052Z,0.87
2022-08-12T15:18:21.766Z,0.80
2022-08-12T15:20:54.794Z,1.10
2022-08-12T15:23:23.536Z,1.07
2022-08-12T15:26:02.706Z,0.90
2022-08-12T15:28:32.854Z,1.13
2022-08-12T15:31:00.807Z,1.00
2022-08-12T15:33:37.834Z,0.90
2022-08-12T15:36:13.865Z,1.00
2022-08-12T15:38:40.928Z,0.73
2022-08-12T15:41:08.529Z,1.00
2022-08-12T15:44:14.130Z,0.80
2022-08-12T15:46:25.808Z,0.90
2022-08-12T15:48:52.294Z,1.03
2022-08-12T15:51:57.383Z,0.93
2022-08-12T15:54:35.076Z,0.90
2022-08-12T15:57:05.654Z,0.70
2022-08-12T15:59:52.034Z,0.80
2022-08-12T16:02:22.206Z,0.90
2022-08-12T16:04:53.267Z,0.83
2022-08-12T16:07:29.906Z,0.90
2022-08-12T16:10:08.789Z,1.07
2022-08-12T16:12:54.301Z,0.70
2022-08-12T16:15:23.718Z,0.80
2022-08-12T16:18:18.615Z,0.93
2022-08-12T16:20:38.666Z,1.03
2022-08-12T16:23:26.846Z,0.83
2022-08-12T16:26:05.937Z,0.90
2022-08-12T16:28:41.588Z,0.80
2022-08-12T16:31:14.488Z,0.80
2022-08-12T16:33:58.707Z,0.70
2022-08-12T16:36:28.556Z,0.87
2022-08-12T16:38:55.003Z,0.80
2022-08-12T16:41:22.502Z,1.10
2022-08-12T16:43:49.315Z,0.93
2022-08-12T16:46:31.185Z,0.90
2022-08-12T16:48:58.293Z,0.80
2022-08-12T16:51:26.466Z,0.70
2022-08-12T16:53:52.923Z,0.97
2022-08-12T16:56:19.432Z,1.00
2022-08-12T16:58:49.171Z,1.00
2022-08-12T17:01:19.663Z,0.70
2022-08-12T17:04:08.251Z,0.77
2022-08-12T17:06:35.951Z,0.80
2022-08-12T17:09:08.808Z,0.80
2022-08-12T17:11:44.098Z,0.90
2022-08-12T17:14:10.530Z,0.77
2022-08-12T17:16:40.264Z,0.87
2022-08-12T17:19:09.172Z,0.87
2022-08-12T17:21:41.565Z,0.70
2022-08-12T17:24:21.388Z,0.80
2022-08-12T17:26:49.843Z,0.90
2022-08-12T17:29:24.288Z,0.90
2022-08-12T17:32:08.601Z,0.70
2022-08-12T17:34:54.514Z,0.80
2022-08-12T17:37:21.178Z,0.60
2022-08-12T17:40:16.018Z,0.63
2022-08-12T17:42:35.524Z,0.60
2022-08-12T17:45:16.989Z,0.60
2022-08-12T17:47:44.461Z,0.80
2022-08-12T17:50:12.918Z,0.63
2022-08-12T17:52:40.258Z,0.60
2022-08-12T17:55:31.315Z,0.80
2022-08-12T17:57:57.222Z,0.67
2022-08-12T18:00:28.511Z,0.70
2022-08-12T18:02:58.087Z,0.70
2022-08-12T18:05:25.747Z,0.90
2022-08-12T18:08:12.446Z,0.70
2022-08-12T18:10:58.454Z,0.50
2022-08-12T18:13:42.576Z,0.80
2022-08-12T18:16:12.639Z,0.67
2022-08-12T18:18:41.827Z,0.80
2022-08-12T18:21:08.679Z,0.80
2022-08-12T18:23:40.114Z,0.80
2022-08-12T18:26:23.489Z,0.80
2022-08-12T18:28:54.480Z,0.70
2022-08-12T18:31:44.530Z,0.60
2022-08-12T18:34:23.945Z,0.90
2022-08-12T18:36:55.579Z,0.60
2022-08-12T18:39:22.540Z,0.80
2022-08-12T18:41:51.498Z,0.80
2022-08-12T18:44:19.240Z,0.73
2022-08-12T18:46:59.644Z,0.70
2022-08-12T18:49:33.347Z,0.80
2022-08-12T18:52:05.239Z,0.67
2022-08-12T18:54:53.981Z,0.80
2022-08-12T18:58:07.398Z,0.80
2022-08-12T19:00:18.823Z,0.80
2022-08-12T19:02:53.384Z,0.70
2022-08-12T19:05:20.482Z,0.70
2022-08-12T19:07:59.961Z,1.00
2022-08-12T19:10:30.206Z,0.70
2022-08-12T19:13:23.324Z,0.80
2022-08-12T19:15:53.443Z,0.70
2022-08-12T19:18:22.007Z,0.90
2022-08-12T19:20:50.617Z,1.10
2022-08-12T19:23:21.082Z,0.80
2022-08-12T19:26:00.387Z,0.80
2022-08-12T19:28:30.352Z,0.90
2022-08-12T19:31:45.049Z,0.90
2022-08-12T19:36:08.324Z,1.00
2022-08-12T19:37:38.613Z,0.70
2022-08-12T19:40:20.594Z,0.73
2022-08-12T19:43:20.290Z,0.87
2022-08-12T19:45:54.455Z,1.20
2022-08-12T19:48:27.601Z,0.80
2022-08-12T19:50:57.389Z,0.77
2022-08-12T19:53:27.729Z,0.80
2022-08-12T19:55:57.465Z,0.90
2022-08-12T19:58:25.405Z,0.77
2022-08-12T20:00:54.602Z,0.97
2022-08-12T20:03:38.033Z,0.90
2022-08-12T20:06:13.374Z,0.80
2022-08-12T20:08:45.504Z,0.97
2022-08-12T20:12:15.041Z,1.20
2022-08-12T20:14:04.810Z,1.20
2022-08-12T20:19:53.227Z,0.93
2022-08-12T20:22:24.457Z,0.97
2022-08-12T20:24:58.279Z,0.90
2022-08-12T20:28:05.038Z,0.87
2022-08-12T20:30:20.225Z,0.90
2022-08-12T20:32:55.471Z,1.00
2022-08-12T20:35:24.604Z,0.80
2022-08-12T20:38:06.388Z,0.83
2022-08-12T20:40:42.087Z,1.00
2022-08-12T20:43:15.776Z,1.10
2022-08-12T20:45:51.149Z,0.83
2022-08-12T20:48:25.206Z,1.00
2022-08-12T20:50:53.556Z,1.00
2022-08-12T20:53:28.903Z,0.93
2022-08-12T20:56:30.704Z,0.90
2022-08-12T20:59:01.023Z,1.00
2022-08-12T21:01:46.466Z,1.10
2022-08-12T21:04:35.365Z,1.27
2022-08-12T21:07:09.021Z,1.33
2022-08-12T21:09:44.307Z,1.00
2022-08-12T21:12:28.040Z,0.90
2022-08-12T21:15:24.154Z,1.10
2022-08-12T21:18:10.933Z,0.97
2022-08-12T21:20:52.182Z,0.90
2022-08-12T21:23:21.705Z,1.00
2022-08-12T21:25:51.218Z,0.90
2022-08-12T21:28:20.827Z,1.03
2022-08-12T21:32:34.884Z,0.93
2022-08-12T21:33:58.534Z,0.90
2022-08-12T21:36:32.413Z,0.83
2022-08-12T21:39:19.258Z,0.90
2022-08-12T21:41:51.682Z,1.10
2022-08-12T21:44:24.116Z,1.27
2022-08-12T21:47:21.316Z,1.00
2022-08-12T21:50:03.087Z,1.07
2022-08-12T21:52:35.825Z,1.10
2022-08-12T21:55:08.316Z,1.00
2022-08-12T21:57:51.006Z,1.10
2022-08-12T22:00:33.328Z,1.10
2022-08-12T22:03:30.394Z,1.07
2022-08-12T22:06:30.741Z,1.00
2022-08-12T22:09:09.036Z,1.00
2022-08-12T22:11:49.405Z,1.10
2022-08-12T22:14:24.189Z,1.17
2022-08-12T22:16:52.943Z,1.00
2022-08-12T22:19:21.115Z,0.90
2022-08-12T22:21:53.745Z,1.10
2022-08-12T22:24:26.584Z,1.00
2022-08-12T22:27:31.391Z,1.10
2022-08-12T22:30:16.606Z,1.10
2022-08-12T22:32:49.999Z,1.30
2022-08-12T22:35:56.639Z,0.90
2022-08-12T22:38:23.777Z,1.00
2022-08-12T22:40:58.533Z,1.03
2022-08-12T22:44:00.422Z,1.10
2022-08-12T22:46:52.637Z,1.30
2022-08-12T22:49:37.291Z,1.10
2022-08-12T22:52:13.464Z,0.93
2022-08-12T22:55:00.283Z,1.00
2022-08-12T22:57:49.183Z,1.00
2022-08-12T23:00:27.195Z,1.00
2022-08-12T23:03:00.627Z,1.10
2022-08-12T23:05:56.772Z,1.37
2022-08-12T23:08:17.885Z,1.10
2022-08-12T23:10:45.804Z,1.07
2022-08-12T23:13:42.946Z,1.10
2022-08-12T23:16:28.405Z,1.20
2022-08-12T23:19:01.603Z,1.10
2022-08-12T23:21:40.498Z,1.00
2022-08-12T23:24:26.228Z,1.20
2022-08-12T23:27:11.426Z,1.27
2022-08-12T23:29:43.836Z,1.20
2022-08-12T23:32:35.547Z,0.93
2022-08-12T23:35:05.128Z,1.30
2022-08-12T23:37:46.568Z,1.10
2022-08-12T23:40:17.845Z,1.40
2022-08-12T23:42:46.540Z,0.97
2022-08-12T23:45:20.608Z,1.17
2022-08-12T23:47:59.896Z,1.00
2022-08-12T23:50:33.974Z,1.13
2022-08-12T23:53:06.721Z,1.10
2022-08-12T23:55:49.871Z,0.90
2022-08-12T23:58:25.976Z,0.87
